Pineville, North Carolina
Current Conditions -  °F | °C
As of 2:52 PM on Sunday 21 Dec 2014 (Local Time) from KCLT Reporting Station
Broken Clouds Broken Clouds  
Wind Chill: 50°   Ceiling: 4400
Heat Index: 50°   Visibility: 10mi
Dew Point: 35°   Wind: 3mph
Humidity: 57%   Direction: NA
Pressure: 30.19"   Gusts: NA
Location:  35.08°N, 80.89°W
Report Text: KCLT 211952Z VRB03KT 10SM FEW024 BKN044 BKN250 10/02 A3019 RMK AO2 SLP223 T01000017
Loading
Personal Weather Stations






























Interactive Weather Map New forecast layout! Learn more

10-Day Weather Forecast

Advertisements
Track Severe Weather on mobile